sensor_id;sensor_type;location;lat;lon;timestamp;temperature;humidity
41469;DHT22;27206;47.032;15.484;2023-03-14T00:00:35;5.60;99.90
41469;DHT22;27206;47.032;15.484;2023-03-14T00:03:00;5.50;99.90
41469;DHT22;27206;47.032;15.484;2023-03-14T00:05:26;5.50;99.90
41469;DHT22;27206;47.032;15.484;2023-03-14T00:07:52;5.50;99.90
41469;DHT22;27206;47.032;15.484;2023-03-14T00:10:18;5.40;99.90
41469;DHT22;27206;47.032;15.484;2023-03-14T00:12:44;5.40;99.90
41469;DHT22;27206;47.032;15.484;2023-03-14T00:15:10;5.30;99.90
41469;DHT22;27206;47.032;15.484;2023-03-14T00:17:36;5.20;99.90
41469;DHT22;27206;47.032;15.484;2023-03-14T00:20:04;5.10;99.90
41469;DHT22;27206;47.032;15.484;2023-03-14T00:22:38;5.20;99.90
41469;DHT22;27206;47.032;15.484;2023-03-14T00:25:05;5.30;99.90
41469;DHT22;27206;47.032;15.484;2023-03-14T00:27:31;5.30;99.90
41469;DHT22;27206;47.032;15.484;2023-03-14T00:29:57;5.10;99.90
41469;DHT22;27206;47.032;15.484;2023-03-14T00:32:22;5.30;99.90
41469;DHT22;27206;47.032;15.484;2023-03-14T00:34:48;5.40;99.90
41469;DHT22;27206;47.032;15.484;2023-03-14T00:37:14;5.10;99.90
41469;DHT22;27206;47.032;15.484;2023-03-14T00:39:40;5.20;99.90
41469;DHT22;27206;47.032;15.484;2023-03-14T00:42:05;5.20;99.90
41469;DHT22;27206;47.032;15.484;2023-03-14T00:44:31;5.10;99.90
41469;DHT22;27206;47.032;15.484;2023-03-14T00:46:57;5.20;99.90
41469;DHT22;27206;47.032;15.484;2023-03-14T00:49:23;5.10;99.90
41469;DHT22;27206;47.032;15.484;2023-03-14T00:51:48;4.90;99.90
41469;DHT22;27206;47.032;15.484;2023-03-14T00:54:14;5.00;99.90
41469;DHT22;27206;47.032;15.484;2023-03-14T00:56:40;5.20;99.90
41469;DHT22;27206;47.032;15.484;2023-03-14T00:59:06;5.30;99.90
41469;DHT22;27206;47.032;15.484;2023-03-14T01:01:31;5.50;99.90
41469;DHT22;27206;47.032;15.484;2023-03-14T01:03:57;5.40;99.90
41469;DHT22;27206;47.032;15.484;2023-03-14T01:06:25;5.30;99.90
41469;DHT22;27206;47.032;15.484;2023-03-14T01:08:51;5.40;99.90
41469;DHT22;27206;47.032;15.484;2023-03-14T01:13:48;5.30;99.90
41469;DHT22;27206;47.032;15.484;2023-03-14T01:16:14;5.20;99.90
41469;DHT22;27206;47.032;15.484;2023-03-14T01:18:41;5.10;99.90
41469;DHT22;27206;47.032;15.484;2023-03-14T01:21:21;5.10;99.90
41469;DHT22;27206;47.032;15.484;2023-03-14T01:23:48;5.10;99.90
41469;DHT22;27206;47.032;15.484;2023-03-14T01:26:17;5.20;99.90
41469;DHT22;27206;47.032;15.484;2023-03-14T01:28:44;5.30;99.90
41469;DHT22;27206;47.032;15.484;2023-03-14T01:31:11;5.40;99.90
41469;DHT22;27206;47.032;15.484;2023-03-14T01:33:38;5.50;99.90
41469;DHT22;27206;47.032;15.484;2023-03-14T01:36:04;5.60;99.90
41469;DHT22;27206;47.032;15.484;2023-03-14T01:38:30;5.70;99.90
41469;DHT22;27206;47.032;15.484;2023-03-14T01:40:57;5.70;99.90
41469;DHT22;27206;47.032;15.484;2023-03-14T01:43:23;5.80;99.90
41469;DHT22;27206;47.032;15.484;2023-03-14T01:48:40;5.70;99.90
41469;DHT22;27206;47.032;15.484;2023-03-14T01:51:11;5.70;99.90
41469;DHT22;27206;47.032;15.484;2023-03-14T01:53:39;5.70;99.90
41469;DHT22;27206;47.032;15.484;2023-03-14T01:56:07;5.70;99.90
41469;DHT22;27206;47.032;15.484;2023-03-14T01:58:34;5.80;99.90
41469;DHT22;27206;47.032;15.484;2023-03-14T02:01:01;5.70;99.90
41469;DHT22;27206;47.032;15.484;2023-03-14T02:03:29;5.60;99.90
41469;DHT22;27206;47.032;15.484;2023-03-14T02:05:57;5.60;99.90
41469;DHT22;27206;47.032;15.484;2023-03-14T02:08:27;5.60;99.90
41469;DHT22;27206;47.032;15.484;2023-03-14T02:10:53;5.50;99.90
41469;DHT22;27206;47.032;15.484;2023-03-14T02:13:20;5.30;99.90
41469;DHT22;27206;47.032;15.484;2023-03-14T02:15:47;5.30;99.90
41469;DHT22;27206;47.032;15.484;2023-03-14T02:18:14;5.20;99.90
41469;DHT22;27206;47.032;15.484;2023-03-14T02:21:09;5.10;99.90
41469;DHT22;27206;47.032;15.484;2023-03-14T02:26:26;5.10;99.90
41469;DHT22;27206;47.032;15.484;2023-03-14T02:28:53;5.00;99.90
41469;DHT22;27206;47.032;15.484;2023-03-14T02:31:20;5.00;99.90
41469;DHT22;27206;47.032;15.484;2023-03-14T02:33:47;4.90;99.90
41469;DHT22;27206;47.032;15.484;2023-03-14T02:36:14;4.60;99.90
41469;DHT22;27206;47.032;15.484;2023-03-14T02:41:06;4.90;99.90
41469;DHT22;27206;47.032;15.484;2023-03-14T02:43:32;5.20;99.90
41469;DHT22;27206;47.032;15.484;2023-03-14T02:45:58;5.30;99.90
41469;DHT22;27206;47.032;15.484;2023-03-14T02:48:36;5.30;99.90
41469;DHT22;27206;47.032;15.484;2023-03-14T02:51:03;5.30;99.90
41469;DHT22;27206;47.032;15.484;2023-03-14T02:53:34;5.40;99.90
41469;DHT22;27206;47.032;15.484;2023-03-14T02:56:00;5.20;99.90
41469;DHT22;27206;47.032;15.484;2023-03-14T02:58:27;5.20;99.90
41469;DHT22;27206;47.032;15.484;2023-03-14T03:00:53;5.30;99.90
41469;DHT22;27206;47.032;15.484;2023-03-14T03:03:19;5.30;99.90
41469;DHT22;27206;47.032;15.484;2023-03-14T03:05:48;5.40;99.90
41469;DHT22;27206;47.032;15.484;2023-03-14T03:08:16;5.40;99.90
41469;DHT22;27206;47.032;15.484;2023-03-14T03:10:41;5.50;99.90
41469;DHT22;27206;47.032;15.484;2023-03-14T03:13:07;5.50;99.90
41469;DHT22;27206;47.032;15.484;2023-03-14T03:15:32;5.50;99.90
41469;DHT22;27206;47.032;15.484;2023-03-14T03:17:58;5.50;99.90
41469;DHT22;27206;47.032;15.484;2023-03-14T03:20:24;5.50;99.90
41469;DHT22;27206;47.032;15.484;2023-03-14T03:22:49;5.50;99.90
41469;DHT22;27206;47.032;15.484;2023-03-14T03:25:16;5.50;99.90
41469;DHT22;27206;47.032;15.484;2023-03-14T03:27:41;5.50;99.90
41469;DHT22;27206;47.032;15.484;2023-03-14T03:30:08;5.50;99.90
41469;DHT22;27206;47.032;15.484;2023-03-14T03:32:33;5.50;99.90
41469;DHT22;27206;47.032;15.484;2023-03-14T03:34:59;5.60;99.90
41469;DHT22;27206;47.032;15.484;2023-03-14T03:37:25;5.60;99.90
41469;DHT22;27206;47.032;15.484;2023-03-14T03:39:51;5.70;99.90
41469;DHT22;27206;47.032;15.484;2023-03-14T03:42:18;5.60;99.90
41469;DHT22;27206;47.032;15.484;2023-03-14T03:44:44;5.60;99.90
41469;DHT22;27206;47.032;15.484;2023-03-14T03:47:10;5.70;99.90
41469;DHT22;27206;47.032;15.484;2023-03-14T03:49:35;5.70;99.90
41469;DHT22;27206;47.032;15.484;2023-03-14T03:52:01;5.60;99.90
41469;DHT22;27206;47.032;15.484;2023-03-14T03:54:27;5.60;99.90
41469;DHT22;27206;47.032;15.484;2023-03-14T03:56:54;5.50;99.90
41469;DHT22;27206;47.032;15.484;2023-03-14T03:59:20;5.60;99.90
41469;DHT22;27206;47.032;15.484;2023-03-14T04:01:46;5.50;99.90
41469;DHT22;27206;47.032;15.484;2023-03-14T04:04:12;5.60;99.90
41469;DHT22;27206;47.032;15.484;2023-03-14T04:06:37;5.50;99.90
41469;DHT22;27206;47.032;15.484;2023-03-14T04:09:03;5.60;99.90
41469;DHT22;27206;47.032;15.484;2023-03-14T04:11:29;5.50;99.90
41469;DHT22;27206;47.032;15.484;2023-03-14T04:13:55;5.00;99.90
41469;DHT22;27206;47.032;15.484;2023-03-14T04:16:23;5.10;99.90
41469;DHT22;27206;47.032;15.484;2023-03-14T04:18:49;5.30;99.90
41469;DHT22;27206;47.032;15.484;2023-03-14T04:21:15;5.40;99.90
41469;DHT22;27206;47.032;15.484;2023-03-14T04:23:40;5.40;99.90
41469;DHT22;27206;47.032;15.484;2023-03-14T04:26:06;5.40;99.90
41469;DHT22;27206;47.032;15.484;2023-03-14T04:28:32;5.50;99.90
41469;DHT22;27206;47.032;15.484;2023-03-14T04:30:58;5.60;99.90
41469;DHT22;27206;47.032;15.484;2023-03-14T04:33:23;5.50;99.90
41469;DHT22;27206;47.032;15.484;2023-03-14T04:35:52;5.60;99.90
41469;DHT22;27206;47.032;15.484;2023-03-14T04:38:18;5.70;99.90
41469;DHT22;27206;47.032;15.484;2023-03-14T04:40:44;5.70;99.90
41469;DHT22;27206;47.032;15.484;2023-03-14T04:43:10;5.70;99.90
41469;DHT22;27206;47.032;15.484;2023-03-14T04:45:37;5.80;99.90
41469;DHT22;27206;47.032;15.484;2023-03-14T04:48:03;5.90;99.90
41469;DHT22;27206;47.032;15.484;2023-03-14T04:50:28;5.90;99.90
41469;DHT22;27206;47.032;15.484;2023-03-14T04:52:54;5.80;99.90
41469;DHT22;27206;47.032;15.484;2023-03-14T04:55:20;5.90;99.90
41469;DHT22;27206;47.032;15.484;2023-03-14T04:57:45;6.00;99.90
41469;DHT22;27206;47.032;15.484;2023-03-14T05:00:11;6.10;99.90
41469;DHT22;27206;47.032;15.484;2023-03-14T05:02:37;6.20;99.90
41469;DHT22;27206;47.032;15.484;2023-03-14T05:05:03;6.20;99.90
41469;DHT22;27206;47.032;15.484;2023-03-14T05:07:29;6.30;99.90
41469;DHT22;27206;47.032;15.484;2023-03-14T05:09:54;6.20;99.90
41469;DHT22;27206;47.032;15.484;2023-03-14T05:12:20;6.40;99.90
41469;DHT22;27206;47.032;15.484;2023-03-14T05:14:46;6.50;99.90
41469;DHT22;27206;47.032;15.484;2023-03-14T05:17:12;6.60;99.90
41469;DHT22;27206;47.032;15.484;2023-03-14T05:19:40;6.70;99.90
41469;DHT22;27206;47.032;15.484;2023-03-14T05:22:06;6.70;99.90
41469;DHT22;27206;47.032;15.484;2023-03-14T05:24:32;6.80;99.90
41469;DHT22;27206;47.032;15.484;2023-03-14T05:26:57;6.80;99.90
41469;DHT22;27206;47.032;15.484;2023-03-14T05:29:23;6.80;99.90
41469;DHT22;27206;47.032;15.484;2023-03-14T05:31:48;6.80;99.90
41469;DHT22;27206;47.032;15.484;2023-03-14T05:34:14;6.90;99.90
41469;DHT22;27206;47.032;15.484;2023-03-14T05:36:40;6.90;99.90
41469;DHT22;27206;47.032;15.484;2023-03-14T05:39:05;6.90;99.90
41469;DHT22;27206;47.032;15.484;2023-03-14T05:41:31;7.00;99.90
41469;DHT22;27206;47.032;15.484;2023-03-14T05:43:57;7.10;99.90
41469;DHT22;27206;47.032;15.484;2023-03-14T05:46:22;7.10;99.90
41469;DHT22;27206;47.032;15.484;2023-03-14T05:48:48;7.20;99.90
41469;DHT22;27206;47.032;15.484;2023-03-14T05:51:14;7.20;99.90
41469;DHT22;27206;47.032;15.484;2023-03-14T05:53:39;7.30;99.90
41469;DHT22;27206;47.032;15.484;2023-03-14T05:56:05;7.40;99.90
41469;DHT22;27206;47.032;15.484;2023-03-14T05:58:31;7.40;99.90
41469;DHT22;27206;47.032;15.484;2023-03-14T06:00:57;7.60;99.90
41469;DHT22;27206;47.032;15.484;2023-03-14T06:03:22;7.90;99.90
41469;DHT22;27206;47.032;15.484;2023-03-14T06:05:51;8.00;1.00
41469;DHT22;27206;47.032;15.484;2023-03-14T06:08:17;8.30;1.00
41469;DHT22;27206;47.032;15.484;2023-03-14T06:10:43;8.30;99.90
41469;DHT22;27206;47.032;15.484;2023-03-14T06:13:08;8.30;99.90
41469;DHT22;27206;47.032;15.484;2023-03-14T06:15:34;8.40;99.90
41469;DHT22;27206;47.032;15.484;2023-03-14T06:18:01;8.60;99.90
41469;DHT22;27206;47.032;15.484;2023-03-14T06:20:27;8.70;99.90
41469;DHT22;27206;47.032;15.484;2023-03-14T06:22:52;8.70;99.90
41469;DHT22;27206;47.032;15.484;2023-03-14T06:25:18;8.70;99.90
41469;DHT22;27206;47.032;15.484;2023-03-14T06:27:43;8.80;99.90
41469;DHT22;27206;47.032;15.484;2023-03-14T06:30:10;8.90;99.90
41469;DHT22;27206;47.032;15.484;2023-03-14T06:32:35;8.90;99.90
41469;DHT22;27206;47.032;15.484;2023-03-14T06:35:01;9.10;99.90
41469;DHT22;27206;47.032;15.484;2023-03-14T06:37:28;9.20;99.90
41469;DHT22;27206;47.032;15.484;2023-03-14T06:39:54;9.30;99.90
41469;DHT22;27206;47.032;15.484;2023-03-14T06:42:20;9.30;99.90
41469;DHT22;27206;47.032;15.484;2023-03-14T06:44:46;9.30;99.90
41469;DHT22;27206;47.032;15.484;2023-03-14T06:47:12;9.50;99.90
41469;DHT22;27206;47.032;15.484;2023-03-14T06:49:37;9.60;99.90
41469;DHT22;27206;47.032;15.484;2023-03-14T06:52:03;9.70;99.90
41469;DHT22;27206;47.032;15.484;2023-03-14T06:54:29;9.90;99.90
41469;DHT22;27206;47.032;15.484;2023-03-14T06:56:54;10.00;99.90
41469;DHT22;27206;47.032;15.484;2023-03-14T06:59:20;10.20;99.90
41469;DHT22;27206;47.032;15.484;2023-03-14T07:01:46;10.20;99.90
41469;DHT22;27206;47.032;15.484;2023-03-14T07:04:13;10.30;99.90
41469;DHT22;27206;47.032;15.484;2023-03-14T07:06:39;10.40;99.90
41469;DHT22;27206;47.032;15.484;2023-03-14T07:09:05;10.50;99.90
41469;DHT22;27206;47.032;15.484;2023-03-14T07:11:31;10.60;99.90
41469;DHT22;27206;47.032;15.484;2023-03-14T07:13:57;10.80;99.90
41469;DHT22;27206;47.032;15.484;2023-03-14T07:16:23;11.00;99.90
41469;DHT22;27206;47.032;15.484;2023-03-14T07:18:48;11.10;99.90
41469;DHT22;27206;47.032;15.484;2023-03-14T07:21:14;11.30;99.90
41469;DHT22;27206;47.032;15.484;2023-03-14T07:23:40;11.40;99.90
41469;DHT22;27206;47.032;15.484;2023-03-14T07:26:06;11.50;99.90
41469;DHT22;27206;47.032;15.484;2023-03-14T07:28:32;11.70;99.90
41469;DHT22;27206;47.032;15.484;2023-03-14T07:30:58;11.80;99.90
41469;DHT22;27206;47.032;15.484;2023-03-14T07:33:24;12.00;99.90
41469;DHT22;27206;47.032;15.484;2023-03-14T07:35:49;12.10;99.90
41469;DHT22;27206;47.032;15.484;2023-03-14T07:38:16;12.20;99.90
41469;DHT22;27206;47.032;15.484;2023-03-14T07:40:42;12.30;99.90
41469;DHT22;27206;47.032;15.484;2023-03-14T07:43:07;12.40;99.90
41469;DHT22;27206;47.032;15.484;2023-03-14T07:45:33;12.50;99.90
41469;DHT22;27206;47.032;15.484;2023-03-14T07:47:59;12.70;99.90
41469;DHT22;27206;47.032;15.484;2023-03-14T07:50:25;12.70;99.90
41469;DHT22;27206;47.032;15.484;2023-03-14T07:52:51;12.80;99.90
41469;DHT22;27206;47.032;15.484;2023-03-14T07:55:17;12.90;99.90
41469;DHT22;27206;47.032;15.484;2023-03-14T07:57:42;12.90;99.90
41469;DHT22;27206;47.032;15.484;2023-03-14T08:00:08;13.20;99.90
41469;DHT22;27206;47.032;15.484;2023-03-14T08:02:34;13.40;99.90
41469;DHT22;27206;47.032;15.484;2023-03-14T08:05:02;13.60;99.90
41469;DHT22;27206;47.032;15.484;2023-03-14T08:07:27;13.60;99.90
41469;DHT22;27206;47.032;15.484;2023-03-14T08:09:53;13.60;99.90
41469;DHT22;27206;47.032;15.484;2023-03-14T08:12:18;13.50;99.90
41469;DHT22;27206;47.032;15.484;2023-03-14T08:14:44;13.70;99.90
41469;DHT22;27206;47.032;15.484;2023-03-14T08:17:10;13.80;99.90
41469;DHT22;27206;47.032;15.484;2023-03-14T08:19:35;13.80;99.90
41469;DHT22;27206;47.032;15.484;2023-03-14T08:22:01;13.90;99.90
41469;DHT22;27206;47.032;15.484;2023-03-14T08:24:27;14.10;99.90
41469;DHT22;27206;47.032;15.484;2023-03-14T08:26:53;14.30;99.90
41469;DHT22;27206;47.032;15.484;2023-03-14T08:29:19;14.40;99.90
41469;DHT22;27206;47.032;15.484;2023-03-14T08:31:45;14.60;99.90
41469;DHT22;27206;47.032;15.484;2023-03-14T08:34:10;14.70;99.90
41469;DHT22;27206;47.032;15.484;2023-03-14T08:36:36;14.80;99.90
41469;DHT22;27206;47.032;15.484;2023-03-14T08:39:02;14.70;99.90
41469;DHT22;27206;47.032;15.484;2023-03-14T08:41:29;14.80;99.90
41469;DHT22;27206;47.032;15.484;2023-03-14T08:43:54;15.10;99.90
41469;DHT22;27206;47.032;15.484;2023-03-14T08:46:20;15.30;99.90
41469;DHT22;27206;47.032;15.484;2023-03-14T08:48:46;15.50;99.90
41469;DHT22;27206;47.032;15.484;2023-03-14T08:51:14;15.90;99.90
41469;DHT22;27206;47.032;15.484;2023-03-14T08:53:40;16.50;99.90
41469;DHT22;27206;47.032;15.484;2023-03-14T08:56:07;16.80;99.90
41469;DHT22;27206;47.032;15.484;2023-03-14T08:58:35;16.80;99.90
41469;DHT22;27206;47.032;15.484;2023-03-14T09:01:04;17.00;99.90
41469;DHT22;27206;47.032;15.484;2023-03-14T09:03:30;16.70;99.90
41469;DHT22;27206;47.032;15.484;2023-03-14T09:05:56;16.50;99.90
41469;DHT22;27206;47.032;15.484;2023-03-14T09:08:26;16.40;99.90
41469;DHT22;27206;47.032;15.484;2023-03-14T09:10:52;16.20;99.90
41469;DHT22;27206;47.032;15.484;2023-03-14T09:13:17;16.10;99.90
41469;DHT22;27206;47.032;15.484;2023-03-14T09:15:43;16.40;99.90
41469;DHT22;27206;47.032;15.484;2023-03-14T09:18:09;16.40;99.90
41469;DHT22;27206;47.032;15.484;2023-03-14T09:20:34;16.20;99.90
41469;DHT22;27206;47.032;15.484;2023-03-14T09:23:00;16.40;99.90
41469;DHT22;27206;47.032;15.484;2023-03-14T09:25:25;16.50;99.90
41469;DHT22;27206;47.032;15.484;2023-03-14T09:27:51;16.40;99.90
41469;DHT22;27206;47.032;15.484;2023-03-14T09:30:17;16.30;99.90
41469;DHT22;27206;47.032;15.484;2023-03-14T09:32:42;16.20;99.90
41469;DHT22;27206;47.032;15.484;2023-03-14T09:35:08;16.00;99.90
41469;DHT22;27206;47.032;15.484;2023-03-14T09:37:35;15.90;99.90
41469;DHT22;27206;47.032;15.484;2023-03-14T09:40:00;15.80;99.90
41469;DHT22;27206;47.032;15.484;2023-03-14T09:42:30;15.60;99.90
41469;DHT22;27206;47.032;15.484;2023-03-14T09:45:04;15.60;99.90
41469;DHT22;27206;47.032;15.484;2023-03-14T09:47:34;15.50;99.90
41469;DHT22;27206;47.032;15.484;2023-03-14T09:50:00;15.40;99.90
41469;DHT22;27206;47.032;15.484;2023-03-14T09:52:35;15.30;99.90
41469;DHT22;27206;47.032;15.484;2023-03-14T09:55:16;15.30;99.90
41469;DHT22;27206;47.032;15.484;2023-03-14T09:57:44;15.20;99.90
41469;DHT22;27206;47.032;15.484;2023-03-14T10:00:28;15.20;99.90
41469;DHT22;27206;47.032;15.484;2023-03-14T10:02:57;15.20;99.90
41469;DHT22;27206;47.032;15.484;2023-03-14T10:05:25;15.20;99.90
41469;DHT22;27206;47.032;15.484;2023-03-14T10:07:54;15.20;99.90
41469;DHT22;27206;47.032;15.484;2023-03-14T10:10:22;15.20;99.90
41469;DHT22;27206;47.032;15.484;2023-03-14T10:13:05;15.20;99.90
41469;DHT22;27206;47.032;15.484;2023-03-14T10:15:34;15.20;99.90
41469;DHT22;27206;47.032;15.484;2023-03-14T10:18:01;15.20;99.90
41469;DHT22;27206;47.032;15.484;2023-03-14T10:20:29;15.20;99.90
41469;DHT22;27206;47.032;15.484;2023-03-14T10:23:04;15.30;99.90
41469;DHT22;27206;47.032;15.484;2023-03-14T10:25:33;15.40;99.90
41469;DHT22;27206;47.032;15.484;2023-03-14T10:27:59;15.50;99.90
41469;DHT22;27206;47.032;15.484;2023-03-14T10:30:45;15.60;99.90
41469;DHT22;27206;47.032;15.484;2023-03-14T10:33:30;15.90;99.90
41469;DHT22;27206;47.032;15.484;2023-03-14T10:36:26;16.10;99.90
41469;DHT22;27206;47.032;15.484;2023-03-14T10:39:30;16.30;99.90
41469;DHT22;27206;47.032;15.484;2023-03-14T10:42:12;16.30;99.90
41469;DHT22;27206;47.032;15.484;2023-03-14T10:44:38;16.30;99.90
41469;DHT22;27206;47.032;15.484;2023-03-14T10:47:05;16.30;99.90
41469;DHT22;27206;47.032;15.484;2023-03-14T10:49:36;16.30;99.90
41469;DHT22;27206;47.032;15.484;2023-03-14T10:54:34;16.30;99.90
41469;DHT22;27206;47.032;15.484;2023-03-14T10:57:01;16.40;99.90
41469;DHT22;27206;47.032;15.484;2023-03-14T10:59:36;16.60;99.90
41469;DHT22;27206;47.032;15.484;2023-03-14T11:02:04;16.60;99.90
41469;DHT22;27206;47.032;15.484;2023-03-14T11:07:29;16.40;99.90
41469;DHT22;27206;47.032;15.484;2023-03-14T11:12:55;16.20;99.90
41469;DHT22;27206;47.032;15.484;2023-03-14T11:21:29;16.30;99.90
41469;DHT22;27206;47.032;15.484;2023-03-14T11:26:51;17.10;99.90
41469;DHT22;27206;47.032;15.484;2023-03-14T11:30:12;17.10;99.90
41469;DHT22;27206;47.032;15.484;2023-03-14T11:32:24;16.90;99.90
41469;DHT22;27206;47.032;15.484;2023-03-14T11:34:54;17.50;99.90
41469;DHT22;27206;47.032;15.484;2023-03-14T11:37:33;17.70;99.90
41469;DHT22;27206;47.032;15.484;2023-03-14T11:40:11;18.00;99.90
41469;DHT22;27206;47.032;15.484;2023-03-14T11:42:38;17.90;99.90
41469;DHT22;27206;47.032;15.484;2023-03-14T11:45:05;18.40;99.90
41469;DHT22;27206;47.032;15.484;2023-03-14T11:47:39;18.40;99.90
41469;DHT22;27206;47.032;15.484;2023-03-14T11:50:18;17.90;99.90
41469;DHT22;27206;47.032;15.484;2023-03-14T11:52:53;17.50;99.90
41469;DHT22;27206;47.032;15.484;2023-03-14T11:55:24;17.50;99.90
41469;DHT22;27206;47.032;15.484;2023-03-14T11:57:55;17.70;99.90
41469;DHT22;27206;47.032;15.484;2023-03-14T12:00:23;17.60;99.90
41469;DHT22;27206;47.032;15.484;2023-03-14T12:13:10;17.30;99.90
41469;DHT22;27206;47.032;15.484;2023-03-14T12:15:40;17.10;99.90
41469;DHT22;27206;47.032;15.484;2023-03-14T12:20:56;16.80;99.90
41469;DHT22;27206;47.032;15.484;2023-03-14T12:23:23;16.70;99.90
41469;DHT22;27206;47.032;15.484;2023-03-14T12:26:28;16.40;99.90
41469;DHT22;27206;47.032;15.484;2023-03-14T12:29:18;16.30;99.90
41469;DHT22;27206;47.032;15.484;2023-03-14T12:31:46;16.10;99.90
41469;DHT22;27206;47.032;15.484;2023-03-14T12:39:39;15.90;99.90
41469;DHT22;27206;47.032;15.484;2023-03-14T12:44:49;15.70;99.90
41469;DHT22;27206;47.032;15.484;2023-03-14T12:49:52;15.40;99.90
41469;DHT22;27206;47.032;15.484;2023-03-14T12:52:47;15.40;99.90
41469;DHT22;27206;47.032;15.484;2023-03-14T12:55:18;15.30;99.90
41469;DHT22;27206;47.032;15.484;2023-03-14T12:58:08;15.10;99.90
41469;DHT22;27206;47.032;15.484;2023-03-14T13:00:39;15.10;99.90
41469;DHT22;27206;47.032;15.484;2023-03-14T13:03:21;15.10;99.90
41469;DHT22;27206;47.032;15.484;2023-03-14T13:05:57;15.10;99.90
41469;DHT22;27206;47.032;15.484;2023-03-14T13:08:41;15.10;99.90
41469;DHT22;27206;47.032;15.484;2023-03-14T13:11:15;15.10;99.90
41469;DHT22;27206;47.032;15.484;2023-03-14T13:13:48;15.30;99.90
41469;DHT22;27206;47.032;15.484;2023-03-14T13:16:20;15.30;99.90
41469;DHT22;27206;47.032;15.484;2023-03-14T13:18:48;15.20;99.90
41469;DHT22;27206;47.032;15.484;2023-03-14T13:21:21;15.20;99.90
41469;DHT22;27206;47.032;15.484;2023-03-14T13:26:34;15.10;99.90
41469;DHT22;27206;47.032;15.484;2023-03-14T13:29:19;15.10;99.90
41469;DHT22;27206;47.032;15.484;2023-03-14T13:31:48;15.10;99.90
41469;DHT22;27206;47.032;15.484;2023-03-14T13:34:14;15.20;99.90
41469;DHT22;27206;47.032;15.484;2023-03-14T13:36:39;15.30;99.90
41469;DHT22;27206;47.032;15.484;2023-03-14T13:39:13;15.10;99.90
41469;DHT22;27206;47.032;15.484;2023-03-14T13:41:40;15.10;99.90
41469;DHT22;27206;47.032;15.484;2023-03-14T13:44:09;15.80;99.90
41469;DHT22;27206;47.032;15.484;2023-03-14T13:46:39;16.70;99.90
41469;DHT22;27206;47.032;15.484;2023-03-14T13:49:10;17.10;99.90
41469;DHT22;27206;47.032;15.484;2023-03-14T13:51:38;16.80;99.90
41469;DHT22;27206;47.032;15.484;2023-03-14T13:54:19;16.70;99.90
41469;DHT22;27206;47.032;15.484;2023-03-14T13:56:47;16.50;99.90
41469;DHT22;27206;47.032;15.484;2023-03-14T13:59:27;16.50;99.90
41469;DHT22;27206;47.032;15.484;2023-03-14T14:01:54;16.60;99.90
41469;DHT22;27206;47.032;15.484;2023-03-14T14:04:22;16.80;99.90
41469;DHT22;27206;47.032;15.484;2023-03-14T14:06:59;16.80;99.90
41469;DHT22;27206;47.032;15.484;2023-03-14T14:09:28;16.50;99.90
41469;DHT22;27206;47.032;15.484;2023-03-14T14:12:00;16.20;99.90
41469;DHT22;27206;47.032;15.484;2023-03-14T14:14:43;15.80;99.90
41469;DHT22;27206;47.032;15.484;2023-03-14T14:17:13;15.70;99.90
41469;DHT22;27206;47.032;15.484;2023-03-14T14:19:41;15.40;99.90
41469;DHT22;27206;47.032;15.484;2023-03-14T14:22:09;15.40;99.90
41469;DHT22;27206;47.032;15.484;2023-03-14T14:24:36;15.30;99.90
41469;DHT22;27206;47.032;15.484;2023-03-14T14:27:38;15.10;99.90
41469;DHT22;27206;47.032;15.484;2023-03-14T14:32:46;15.00;99.90
41469;DHT22;27206;47.032;15.484;2023-03-14T14:35:30;15.00;99.90
41469;DHT22;27206;47.032;15.484;2023-03-14T14:37:56;15.10;99.90
41469;DHT22;27206;47.032;15.484;2023-03-14T14:40:27;15.10;99.90
41469;DHT22;27206;47.032;15.484;2023-03-14T14:42:54;15.10;99.90
41469;DHT22;27206;47.032;15.484;2023-03-14T14:45:24;15.10;99.90
41469;DHT22;27206;47.032;15.484;2023-03-14T14:48:02;15.10;99.90
41469;DHT22;27206;47.032;15.484;2023-03-14T14:50:33;15.00;99.90
41469;DHT22;27206;47.032;15.484;2023-03-14T14:53:02;15.00;99.90
41469;DHT22;27206;47.032;15.484;2023-03-14T14:55:34;15.00;99.90
41469;DHT22;27206;47.032;15.484;2023-03-14T14:58:35;15.10;99.90
41469;DHT22;27206;47.032;15.484;2023-03-14T15:01:22;15.60;99.90
41469;DHT22;27206;47.032;15.484;2023-03-14T15:03:51;15.50;99.90
41469;DHT22;27206;47.032;15.484;2023-03-14T15:06:18;15.70;99.90
41469;DHT22;27206;47.032;15.484;2023-03-14T15:08:46;15.70;99.90
41469;DHT22;27206;47.032;15.484;2023-03-14T15:11:21;15.50;99.90
41469;DHT22;27206;47.032;15.484;2023-03-14T15:13:51;15.40;99.90
41469;DHT22;27206;47.032;15.484;2023-03-14T15:16:20;15.30;99.90
41469;DHT22;27206;47.032;15.484;2023-03-14T15:18:50;15.30;99.90
41469;DHT22;27206;47.032;15.484;2023-03-14T15:21:18;15.20;99.90
41469;DHT22;27206;47.032;15.484;2023-03-14T15:23:44;15.10;99.90
41469;DHT22;27206;47.032;15.484;2023-03-14T15:26:21;15.00;99.90
41469;DHT22;27206;47.032;15.484;2023-03-14T15:28:47;15.00;99.90
41469;DHT22;27206;47.032;15.484;2023-03-14T15:31:15;15.00;99.90
41469;DHT22;27206;47.032;15.484;2023-03-14T15:33:42;14.90;99.90
41469;DHT22;27206;47.032;15.484;2023-03-14T15:36:30;15.00;99.90
41469;DHT22;27206;47.032;15.484;2023-03-14T15:38:58;14.90;99.90
41469;DHT22;27206;47.032;15.484;2023-03-14T15:41:25;14.90;99.90
41469;DHT22;27206;47.032;15.484;2023-03-14T15:43:51;14.80;99.90
41469;DHT22;27206;47.032;15.484;2023-03-14T15:46:17;14.80;99.90
41469;DHT22;27206;47.032;15.484;2023-03-14T15:48:44;14.70;99.90
41469;DHT22;27206;47.032;15.484;2023-03-14T15:51:10;14.70;99.90
41469;DHT22;27206;47.032;15.484;2023-03-14T15:53:36;14.70;99.90
41469;DHT22;27206;47.032;15.484;2023-03-14T15:56:04;14.70;99.90
41469;DHT22;27206;47.032;15.484;2023-03-14T15:58:30;14.70;99.90
41469;DHT22;27206;47.032;15.484;2023-03-14T16:00:59;14.60;99.90
41469;DHT22;27206;47.032;15.484;2023-03-14T16:03:26;14.60;99.90
41469;DHT22;27206;47.032;15.484;2023-03-14T16:05:52;14.80;99.90
41469;DHT22;27206;47.032;15.484;2023-03-14T16:08:18;14.80;99.90
41469;DHT22;27206;47.032;15.484;2023-03-14T16:10:45;14.70;99.90
41469;DHT22;27206;47.032;15.484;2023-03-14T16:13:11;14.60;99.90
41469;DHT22;27206;47.032;15.484;2023-03-14T16:15:37;14.60;99.90
41469;DHT22;27206;47.032;15.484;2023-03-14T16:18:03;14.50;99.90
41469;DHT22;27206;47.032;15.484;2023-03-14T16:20:28;14.40;99.90
41469;DHT22;27206;47.032;15.484;2023-03-14T16:22:54;14.30;99.90
41469;DHT22;27206;47.032;15.484;2023-03-14T16:25:21;14.20;99.90
41469;DHT22;27206;47.032;15.484;2023-03-14T16:27:46;14.20;99.90